sensor_id;sensor_type;location;lat;lon;timestamp;P1;durP1;ratioP1;P2;durP2;ratioP2
37451;SDS011;23314;51.114;6.900;2024-01-27T00:01:22;28.70;;;5.20;;
37451;SDS011;23314;51.114;6.900;2024-01-27T00:03:47;22.57;;;5.17;;
37451;SDS011;23314;51.114;6.900;2024-01-27T00:06:13;23.60;;;5.60;;
37451;SDS011;23314;51.114;6.900;2024-01-27T00:08:38;20.93;;;5.50;;
37451;SDS011;23314;51.114;6.900;2024-01-27T00:11:03;26.50;;;5.57;;
37451;SDS011;23314;51.114;6.900;2024-01-27T00:13:29;29.17;;;6.47;;
37451;SDS011;23314;51.114;6.900;2024-01-27T00:15:55;23.30;;;5.53;;
37451;SDS011;23314;51.114;6.900;2024-01-27T00:18:20;23.73;;;5.27;;
37451;SDS011;23314;51.114;6.900;2024-01-27T00:20:45;26.93;;;5.87;;
37451;SDS011;23314;51.114;6.900;2024-01-27T00:23:12;28.67;;;5.93;;
37451;SDS011;23314;51.114;6.900;2024-01-27T00:25:37;23.03;;;5.87;;
37451;SDS011;23314;51.114;6.900;2024-01-27T00:28:02;24.03;;;5.17;;
37451;SDS011;23314;51.114;6.900;2024-01-27T00:30:28;17.47;;;5.03;;
37451;SDS011;23314;51.114;6.900;2024-01-27T00:32:53;31.43;;;5.50;;
37451;SDS011;23314;51.114;6.900;2024-01-27T00:35:18;23.47;;;5.67;;
37451;SDS011;23314;51.114;6.900;2024-01-27T00:37:44;20.17;;;5.77;;
37451;SDS011;23314;51.114;6.900;2024-01-27T00:40:10;24.50;;;7.53;;
37451;SDS011;23314;51.114;6.900;2024-01-27T00:42:36;26.53;;;5.90;;
37451;SDS011;23314;51.114;6.900;2024-01-27T00:45:03;27.13;;;6.23;;
37451;SDS011;23314;51.114;6.900;2024-01-27T00:47:29;29.87;;;6.00;;
37451;SDS011;23314;51.114;6.900;2024-01-27T00:49:55;20.10;;;6.03;;
37451;SDS011;23314;51.114;6.900;2024-01-27T00:52:20;24.23;;;5.93;;
37451;SDS011;23314;51.114;6.900;2024-01-27T00:54:45;31.50;;;6.37;;
37451;SDS011;23314;51.114;6.900;2024-01-27T00:57:11;19.87;;;5.70;;
37451;SDS011;23314;51.114;6.900;2024-01-27T00:59:36;19.93;;;5.30;;
37451;SDS011;23314;51.114;6.900;2024-01-27T01:02:01;27.33;;;5.50;;
37451;SDS011;23314;51.114;6.900;2024-01-27T01:04:27;23.53;;;5.77;;
37451;SDS011;23314;51.114;6.900;2024-01-27T01:06:52;30.63;;;6.27;;
37451;SDS011;23314;51.114;6.900;2024-01-27T01:09:20;16.70;;;4.80;;
37451;SDS011;23314;51.114;6.900;2024-01-27T01:11:46;20.90;;;5.57;;
37451;SDS011;23314;51.114;6.900;2024-01-27T01:14:11;25.83;;;6.40;;
37451;SDS011;23314;51.114;6.900;2024-01-27T01:16:37;27.77;;;6.40;;
37451;SDS011;23314;51.114;6.900;2024-01-27T01:19:02;26.03;;;6.27;;
37451;SDS011;23314;51.114;6.900;2024-01-27T01:21:27;24.70;;;5.73;;
37451;SDS011;23314;51.114;6.900;2024-01-27T01:23:53;27.27;;;6.53;;
37451;SDS011;23314;51.114;6.900;2024-01-27T01:26:18;24.57;;;6.63;;
37451;SDS011;23314;51.114;6.900;2024-01-27T01:28:44;27.93;;;7.17;;
37451;SDS011;23314;51.114;6.900;2024-01-27T01:31:09;26.73;;;7.17;;
37451;SDS011;23314;51.114;6.900;2024-01-27T01:33:34;25.87;;;6.40;;
37451;SDS011;23314;51.114;6.900;2024-01-27T01:36:00;22.43;;;6.30;;
37451;SDS011;23314;51.114;6.900;2024-01-27T01:38:25;22.20;;;6.30;;
37451;SDS011;23314;51.114;6.900;2024-01-27T01:40:50;20.63;;;5.73;;
37451;SDS011;23314;51.114;6.900;2024-01-27T01:43:15;20.17;;;5.37;;
37451;SDS011;23314;51.114;6.900;2024-01-27T01:45:41;23.90;;;6.50;;
37451;SDS011;23314;51.114;6.900;2024-01-27T01:48:07;28.00;;;6.30;;
37451;SDS011;23314;51.114;6.900;2024-01-27T01:50:33;19.73;;;5.80;;
37451;SDS011;23314;51.114;6.900;2024-01-27T01:52:59;24.90;;;6.70;;
37451;SDS011;23314;51.114;6.900;2024-01-27T01:55:24;21.20;;;6.33;;
37451;SDS011;23314;51.114;6.900;2024-01-27T01:57:50;24.80;;;6.20;;
37451;SDS011;23314;51.114;6.900;2024-01-27T02:00:16;24.07;;;6.60;;
37451;SDS011;23314;51.114;6.900;2024-01-27T02:02:44;30.47;;;6.90;;
37451;SDS011;23314;51.114;6.900;2024-01-27T02:05:13;24.50;;;6.57;;
37451;SDS011;23314;51.114;6.900;2024-01-27T02:07:39;23.07;;;6.47;;
37451;SDS011;23314;51.114;6.900;2024-01-27T02:10:05;29.27;;;7.17;;
37451;SDS011;23314;51.114;6.900;2024-01-27T02:12:31;24.53;;;6.37;;
37451;SDS011;23314;51.114;6.900;2024-01-27T02:14:56;22.70;;;7.07;;
37451;SDS011;23314;51.114;6.900;2024-01-27T02:17:22;25.53;;;6.70;;
37451;SDS011;23314;51.114;6.900;2024-01-27T02:19:47;24.70;;;6.60;;
37451;SDS011;23314;51.114;6.900;2024-01-27T02:22:12;22.07;;;6.03;;
37451;SDS011;23314;51.114;6.900;2024-01-27T02:24:38;30.57;;;7.23;;
37451;SDS011;23314;51.114;6.900;2024-01-27T02:27:03;24.07;;;6.80;;
37451;SDS011;23314;51.114;6.900;2024-01-27T02:29:28;24.70;;;7.07;;
37451;SDS011;23314;51.114;6.900;2024-01-27T02:31:54;23.83;;;7.13;;
37451;SDS011;23314;51.114;6.900;2024-01-27T02:34:20;22.67;;;7.03;;
37451;SDS011;23314;51.114;6.900;2024-01-27T02:36:45;21.33;;;7.20;;
37451;SDS011;23314;51.114;6.900;2024-01-27T02:39:11;23.10;;;7.60;;
37451;SDS011;23314;51.114;6.900;2024-01-27T02:41:36;27.33;;;8.00;;
37451;SDS011;23314;51.114;6.900;2024-01-27T02:44:04;24.53;;;7.23;;
37451;SDS011;23314;51.114;6.900;2024-01-27T02:46:30;23.93;;;7.33;;
37451;SDS011;23314;51.114;6.900;2024-01-27T02:48:55;25.70;;;6.77;;
37451;SDS011;23314;51.114;6.900;2024-01-27T02:51:21;30.73;;;7.97;;
37451;SDS011;23314;51.114;6.900;2024-01-27T02:53:46;27.53;;;7.30;;
37451;SDS011;23314;51.114;6.900;2024-01-27T02:56:12;31.90;;;8.37;;
37451;SDS011;23314;51.114;6.900;2024-01-27T02:58:37;32.93;;;7.77;;
37451;SDS011;23314;51.114;6.900;2024-01-27T03:01:02;19.73;;;6.93;;
37451;SDS011;23314;51.114;6.900;2024-01-27T03:03:28;25.93;;;7.47;;
37451;SDS011;23314;51.114;6.900;2024-01-27T03:05:54;23.83;;;7.37;;
37451;SDS011;23314;51.114;6.900;2024-01-27T03:08:19;22.40;;;7.40;;
37451;SDS011;23314;51.114;6.900;2024-01-27T03:10:45;29.80;;;8.17;;
37451;SDS011;23314;51.114;6.900;2024-01-27T03:13:10;24.37;;;7.47;;
37451;SDS011;23314;51.114;6.900;2024-01-27T03:15:36;22.93;;;7.30;;
37451;SDS011;23314;51.114;6.900;2024-01-27T03:18:02;19.13;;;8.10;;
37451;SDS011;23314;51.114;6.900;2024-01-27T03:20:28;29.70;;;8.07;;
37451;SDS011;23314;51.114;6.900;2024-01-27T03:22:56;24.90;;;7.73;;
37451;SDS011;23314;51.114;6.900;2024-01-27T03:25:21;22.50;;;7.13;;
37451;SDS011;23314;51.114;6.900;2024-01-27T03:27:46;22.53;;;8.00;;
37451;SDS011;23314;51.114;6.900;2024-01-27T03:30:12;18.73;;;6.57;;
37451;SDS011;23314;51.114;6.900;2024-01-27T03:32:37;30.43;;;7.87;;
37451;SDS011;23314;51.114;6.900;2024-01-27T03:35:02;25.60;;;7.40;;
37451;SDS011;23314;51.114;6.900;2024-01-27T03:37:29;20.57;;;7.47;;
37451;SDS011;23314;51.114;6.900;2024-01-27T03:39:54;33.20;;;8.43;;
37451;SDS011;23314;51.114;6.900;2024-01-27T03:42:19;25.97;;;7.70;;
37451;SDS011;23314;51.114;6.900;2024-01-27T03:44:45;24.10;;;6.93;;
37451;SDS011;23314;51.114;6.900;2024-01-27T03:47:10;28.83;;;7.57;;
37451;SDS011;23314;51.114;6.900;2024-01-27T03:49:35;19.90;;;7.03;;
37451;SDS011;23314;51.114;6.900;2024-01-27T03:52:01;26.20;;;8.00;;
37451;SDS011;23314;51.114;6.900;2024-01-27T03:54:26;24.57;;;7.13;;
37451;SDS011;23314;51.114;6.900;2024-01-27T03:56:51;26.30;;;7.83;;
37451;SDS011;23314;51.114;6.900;2024-01-27T03:59:17;22.67;;;7.20;;
37451;SDS011;23314;51.114;6.900;2024-01-27T04:01:42;24.03;;;7.17;;
37451;SDS011;23314;51.114;6.900;2024-01-27T04:04:07;19.67;;;7.73;;
37451;SDS011;23314;51.114;6.900;2024-01-27T04:06:37;25.23;;;7.90;;
37451;SDS011;23314;51.114;6.900;2024-01-27T04:09:03;24.50;;;7.63;;
37451;SDS011;23314;51.114;6.900;2024-01-27T04:11:28;23.90;;;7.30;;
37451;SDS011;23314;51.114;6.900;2024-01-27T04:13:54;20.87;;;7.27;;
37451;SDS011;23314;51.114;6.900;2024-01-27T04:16:19;22.57;;;7.47;;
37451;SDS011;23314;51.114;6.900;2024-01-27T04:18:44;23.53;;;7.43;;
37451;SDS011;23314;51.114;6.900;2024-01-27T04:21:10;26.10;;;7.87;;
37451;SDS011;23314;51.114;6.900;2024-01-27T04:23:35;23.67;;;7.83;;
37451;SDS011;23314;51.114;6.900;2024-01-27T04:26:00;33.13;;;8.47;;
37451;SDS011;23314;51.114;6.900;2024-01-27T04:28:26;20.20;;;7.60;;
37451;SDS011;23314;51.114;6.900;2024-01-27T04:30:51;31.27;;;7.73;;
37451;SDS011;23314;51.114;6.900;2024-01-27T04:33:17;22.90;;;8.50;;
37451;SDS011;23314;51.114;6.900;2024-01-27T04:35:42;24.27;;;7.53;;
37451;SDS011;23314;51.114;6.900;2024-01-27T04:38:08;29.20;;;7.63;;
37451;SDS011;23314;51.114;6.900;2024-01-27T04:40:34;19.90;;;7.17;;
37451;SDS011;23314;51.114;6.900;2024-01-27T04:43:00;22.47;;;7.50;;
37451;SDS011;23314;51.114;6.900;2024-01-27T04:45:26;26.53;;;7.97;;
37451;SDS011;23314;51.114;6.900;2024-01-27T04:47:52;32.13;;;9.03;;
37451;SDS011;23314;51.114;6.900;2024-01-27T04:50:18;24.63;;;8.10;;
37451;SDS011;23314;51.114;6.900;2024-01-27T04:52:44;27.53;;;7.90;;
37451;SDS011;23314;51.114;6.900;2024-01-27T04:55:09;23.90;;;7.87;;
37451;SDS011;23314;51.114;6.900;2024-01-27T04:57:34;28.20;;;8.73;;
37451;SDS011;23314;51.114;6.900;2024-01-27T04:59:59;30.93;;;8.67;;
37451;SDS011;23314;51.114;6.900;2024-01-27T05:02:25;27.23;;;8.10;;
37451;SDS011;23314;51.114;6.900;2024-01-27T05:04:50;31.17;;;7.93;;
37451;SDS011;23314;51.114;6.900;2024-01-27T05:07:15;24.67;;;7.37;;
37451;SDS011;23314;51.114;6.900;2024-01-27T05:09:41;35.43;;;7.77;;
37451;SDS011;23314;51.114;6.900;2024-01-27T05:12:06;23.87;;;8.20;;
37451;SDS011;23314;51.114;6.900;2024-01-27T05:14:32;23.00;;;7.67;;
37451;SDS011;23314;51.114;6.900;2024-01-27T05:16:57;21.50;;;7.30;;
37451;SDS011;23314;51.114;6.900;2024-01-27T05:19:22;28.53;;;7.50;;
37451;SDS011;23314;51.114;6.900;2024-01-27T05:21:48;27.83;;;7.97;;
37451;SDS011;23314;51.114;6.900;2024-01-27T05:24:13;29.03;;;7.97;;
37451;SDS011;23314;51.114;6.900;2024-01-27T05:26:38;31.07;;;8.77;;
37451;SDS011;23314;51.114;6.900;2024-01-27T05:29:04;26.63;;;8.67;;
37451;SDS011;23314;51.114;6.900;2024-01-27T05:31:29;31.20;;;8.73;;
37451;SDS011;23314;51.114;6.900;2024-01-27T05:33:54;24.20;;;8.70;;
37451;SDS011;23314;51.114;6.900;2024-01-27T05:36:20;26.60;;;8.03;;
37451;SDS011;23314;51.114;6.900;2024-01-27T05:38:45;32.07;;;8.70;;
37451;SDS011;23314;51.114;6.900;2024-01-27T05:41:10;27.97;;;8.67;;
37451;SDS011;23314;51.114;6.900;2024-01-27T05:43:36;34.60;;;9.23;;
37451;SDS011;23314;51.114;6.900;2024-01-27T05:46:02;22.37;;;8.40;;
37451;SDS011;23314;51.114;6.900;2024-01-27T05:48:28;25.00;;;8.63;;
37451;SDS011;23314;51.114;6.900;2024-01-27T05:50:57;23.03;;;8.23;;
37451;SDS011;23314;51.114;6.900;2024-01-27T05:53:24;38.80;;;8.33;;
37451;SDS011;23314;51.114;6.900;2024-01-27T05:55:50;31.37;;;8.50;;
37451;SDS011;23314;51.114;6.900;2024-01-27T05:58:15;29.67;;;9.00;;
37451;SDS011;23314;51.114;6.900;2024-01-27T06:00:42;25.20;;;9.27;;
37451;SDS011;23314;51.114;6.900;2024-01-27T06:03:09;28.27;;;9.27;;
37451;SDS011;23314;51.114;6.900;2024-01-27T06:05:35;30.33;;;9.00;;
37451;SDS011;23314;51.114;6.900;2024-01-27T06:08:00;31.63;;;9.60;;
37451;SDS011;23314;51.114;6.900;2024-01-27T06:10:25;26.00;;;8.93;;
37451;SDS011;23314;51.114;6.900;2024-01-27T06:12:51;30.77;;;9.40;;
37451;SDS011;23314;51.114;6.900;2024-01-27T06:15:16;26.83;;;9.53;;
37451;SDS011;23314;51.114;6.900;2024-01-27T06:17:41;36.17;;;9.37;;
37451;SDS011;23314;51.114;6.900;2024-01-27T06:20:07;33.07;;;10.57;;
37451;SDS011;23314;51.114;6.900;2024-01-27T06:22:33;27.17;;;8.93;;
37451;SDS011;23314;51.114;6.900;2024-01-27T06:24:58;34.43;;;9.73;;
37451;SDS011;23314;51.114;6.900;2024-01-27T06:27:23;31.23;;;10.10;;
37451;SDS011;23314;51.114;6.900;2024-01-27T06:29:49;27.40;;;10.17;;
37451;SDS011;23314;51.114;6.900;2024-01-27T06:32:14;30.50;;;9.70;;
37451;SDS011;23314;51.114;6.900;2024-01-27T06:34:40;28.03;;;9.77;;
37451;SDS011;23314;51.114;6.900;2024-01-27T06:37:06;28.87;;;9.30;;
37451;SDS011;23314;51.114;6.900;2024-01-27T06:39:31;32.10;;;10.30;;
37451;SDS011;23314;51.114;6.900;2024-01-27T06:41:57;43.60;;;11.77;;
37451;SDS011;23314;51.114;6.900;2024-01-27T06:44:22;31.73;;;9.87;;
37451;SDS011;23314;51.114;6.900;2024-01-27T06:46:47;32.80;;;10.17;;
37451;SDS011;23314;51.114;6.900;2024-01-27T06:49:15;25.10;;;9.83;;
37451;SDS011;23314;51.114;6.900;2024-01-27T06:51:41;32.20;;;9.17;;
37451;SDS011;23314;51.114;6.900;2024-01-27T06:54:07;31.20;;;10.27;;
37451;SDS011;23314;51.114;6.900;2024-01-27T06:56:32;31.30;;;9.87;;
37451;SDS011;23314;51.114;6.900;2024-01-27T06:58:57;31.50;;;11.03;;
37451;SDS011;23314;51.114;6.900;2024-01-27T07:01:22;37.23;;;11.50;;
37451;SDS011;23314;51.114;6.900;2024-01-27T07:03:48;26.80;;;9.93;;
37451;SDS011;23314;51.114;6.900;2024-01-27T07:06:13;29.40;;;9.80;;
37451;SDS011;23314;51.114;6.900;2024-01-27T07:08:38;33.90;;;10.77;;
37451;SDS011;23314;51.114;6.900;2024-01-27T07:11:04;28.37;;;9.63;;
37451;SDS011;23314;51.114;6.900;2024-01-27T07:13:29;32.03;;;9.60;;
37451;SDS011;23314;51.114;6.900;2024-01-27T07:15:55;30.70;;;9.17;;
37451;SDS011;23314;51.114;6.900;2024-01-27T07:18:21;29.80;;;10.07;;
37451;SDS011;23314;51.114;6.900;2024-01-27T07:20:47;23.17;;;9.10;;
37451;SDS011;23314;51.114;6.900;2024-01-27T07:23:12;26.27;;;8.83;;
37451;SDS011;23314;51.114;6.900;2024-01-27T07:25:38;25.73;;;9.23;;
37451;SDS011;23314;51.114;6.900;2024-01-27T07:28:03;27.70;;;8.70;;
37451;SDS011;23314;51.114;6.900;2024-01-27T07:30:29;27.60;;;8.50;;
37451;SDS011;23314;51.114;6.900;2024-01-27T07:32:55;30.60;;;8.97;;
37451;SDS011;23314;51.114;6.900;2024-01-27T07:35:21;23.53;;;8.23;;
37451;SDS011;23314;51.114;6.900;2024-01-27T07:37:46;29.90;;;8.20;;
37451;SDS011;23314;51.114;6.900;2024-01-27T07:40:12;30.13;;;9.00;;
37451;SDS011;23314;51.114;6.900;2024-01-27T07:42:37;26.17;;;8.13;;
37451;SDS011;23314;51.114;6.900;2024-01-27T07:45:03;26.93;;;8.67;;
37451;SDS011;23314;51.114;6.900;2024-01-27T07:47:29;23.47;;;8.40;;
37451;SDS011;23314;51.114;6.900;2024-01-27T07:49:54;27.73;;;8.57;;
37451;SDS011;23314;51.114;6.900;2024-01-27T07:52:20;22.70;;;8.90;;
37451;SDS011;23314;51.114;6.900;2024-01-27T07:54:45;27.50;;;7.63;;
37451;SDS011;23314;51.114;6.900;2024-01-27T07:57:10;31.97;;;8.80;;
37451;SDS011;23314;51.114;6.900;2024-01-27T07:59:37;24.20;;;7.70;;
37451;SDS011;23314;51.114;6.900;2024-01-27T08:02:03;26.77;;;7.10;;
37451;SDS011;23314;51.114;6.900;2024-01-27T08:04:28;25.43;;;7.30;;
37451;SDS011;23314;51.114;6.900;2024-01-27T08:06:53;24.37;;;7.77;;
37451;SDS011;23314;51.114;6.900;2024-01-27T08:09:19;31.23;;;7.73;;
37451;SDS011;23314;51.114;6.900;2024-01-27T08:11:45;28.47;;;8.07;;
37451;SDS011;23314;51.114;6.900;2024-01-27T08:14:10;20.00;;;6.57;;
37451;SDS011;23314;51.114;6.900;2024-01-27T08:16:36;27.53;;;7.37;;
37451;SDS011;23314;51.114;6.900;2024-01-27T08:19:01;26.07;;;7.10;;
37451;SDS011;23314;51.114;6.900;2024-01-27T08:21:26;22.70;;;7.70;;
37451;SDS011;23314;51.114;6.900;2024-01-27T08:23:52;22.83;;;7.40;;
37451;SDS011;23314;51.114;6.900;2024-01-27T08:26:18;20.40;;;6.73;;
37451;SDS011;23314;51.114;6.900;2024-01-27T08:28:46;18.80;;;6.27;;
37451;SDS011;23314;51.114;6.900;2024-01-27T08:31:11;29.90;;;8.47;;
37451;SDS011;23314;51.114;6.900;2024-01-27T08:33:36;33.73;;;7.87;;
37451;SDS011;23314;51.114;6.900;2024-01-27T08:36:02;20.43;;;7.03;;
37451;SDS011;23314;51.114;6.900;2024-01-27T08:38:27;29.10;;;8.07;;
37451;SDS011;23314;51.114;6.900;2024-01-27T08:40:53;25.03;;;7.53;;
37451;SDS011;23314;51.114;6.900;2024-01-27T08:43:18;24.40;;;6.97;;
37451;SDS011;23314;51.114;6.900;2024-01-27T08:45:44;30.13;;;7.53;;
37451;SDS011;23314;51.114;6.900;2024-01-27T08:48:09;19.23;;;6.90;;
37451;SDS011;23314;51.114;6.900;2024-01-27T08:50:36;23.07;;;6.80;;
37451;SDS011;23314;51.114;6.900;2024-01-27T08:53:01;25.63;;;7.67;;
37451;SDS011;23314;51.114;6.900;2024-01-27T08:55:27;22.80;;;7.70;;
37451;SDS011;23314;51.114;6.900;2024-01-27T08:57:52;36.63;;;7.73;;
37451;SDS011;23314;51.114;6.900;2024-01-27T09:00:17;19.53;;;7.33;;
37451;SDS011;23314;51.114;6.900;2024-01-27T09:02:43;19.37;;;6.53;;
37451;SDS011;23314;51.114;6.900;2024-01-27T09:05:09;15.60;;;5.90;;
37451;SDS011;23314;51.114;6.900;2024-01-27T09:07:34;20.87;;;6.70;;
37451;SDS011;23314;51.114;6.900;2024-01-27T09:10:00;23.73;;;6.77;;
37451;SDS011;23314;51.114;6.900;2024-01-27T09:12:25;22.50;;;6.70;;
37451;SDS011;23314;51.114;6.900;2024-01-27T09:14:51;24.90;;;6.83;;
37451;SDS011;23314;51.114;6.900;2024-01-27T09:17:16;20.10;;;5.97;;
37451;SDS011;23314;51.114;6.900;2024-01-27T09:19:42;22.20;;;6.07;;
37451;SDS011;23314;51.114;6.900;2024-01-27T09:22:07;20.87;;;6.43;;
37451;SDS011;23314;51.114;6.900;2024-01-27T09:24:33;26.83;;;6.80;;
37451;SDS011;23314;51.114;6.900;2024-01-27T09:26:59;20.53;;;6.20;;
37451;SDS011;23314;51.114;6.900;2024-01-27T09:29:24;21.00;;;5.97;;
37451;SDS011;23314;51.114;6.900;2024-01-27T09:31:50;18.30;;;5.80;;
37451;SDS011;23314;51.114;6.900;2024-01-27T09:34:15;16.60;;;5.87;;
37451;SDS011;23314;51.114;6.900;2024-01-27T09:36:41;15.97;;;4.90;;
37451;SDS011;23314;51.114;6.900;2024-01-27T09:39:06;17.73;;;5.40;;
37451;SDS011;23314;51.114;6.900;2024-01-27T09:41:31;19.67;;;5.43;;
37451;SDS011;23314;51.114;6.900;2024-01-27T09:43:59;26.13;;;6.23;;
37451;SDS011;23314;51.114;6.900;2024-01-27T09:46:26;16.23;;;4.87;;
37451;SDS011;23314;51.114;6.900;2024-01-27T09:48:53;22.57;;;5.80;;
37451;SDS011;23314;51.114;6.900;2024-01-27T09:51:19;22.07;;;5.83;;
37451;SDS011;23314;51.114;6.900;2024-01-27T09:53:44;18.60;;;5.33;;
37451;SDS011;23314;51.114;6.900;2024-01-27T09:56:10;24.27;;;6.00;;
37451;SDS011;23314;51.114;6.900;2024-01-27T09:58:37;21.23;;;6.67;;
37451;SDS011;23314;51.114;6.900;2024-01-27T10:01:02;20.43;;;5.50;;
37451;SDS011;23314;51.114;6.900;2024-01-27T10:03:28;16.33;;;5.00;;
37451;SDS011;23314;51.114;6.900;2024-01-27T10:05:57;17.50;;;5.03;;
37451;SDS011;23314;51.114;6.900;2024-01-27T10:08:23;18.40;;;5.43;;
37451;SDS011;23314;51.114;6.900;2024-01-27T10:10:53;22.37;;;6.07;;
37451;SDS011;23314;51.114;6.900;2024-01-27T10:13:23;24.33;;;5.70;;
37451;SDS011;23314;51.114;6.900;2024-01-27T10:16:04;16.00;;;5.47;;
37451;SDS011;23314;51.114;6.900;2024-01-27T10:18:31;12.57;;;5.00;;
37451;SDS011;23314;51.114;6.900;2024-01-27T10:20:56;19.10;;;6.10;;
37451;SDS011;23314;51.114;6.900;2024-01-27T10:23:22;15.13;;;5.03;;
37451;SDS011;23314;51.114;6.900;2024-01-27T10:25:48;21.77;;;5.93;;
37451;SDS011;23314;51.114;6.900;2024-01-27T10:28:20;19.27;;;5.33;;
37451;SDS011;23314;51.114;6.900;2024-01-27T10:30:47;23.50;;;5.33;;
37451;SDS011;23314;51.114;6.900;2024-01-27T10:33:13;14.93;;;6.23;;
37451;SDS011;23314;51.114;6.900;2024-01-27T10:35:39;16.47;;;5.37;;
37451;SDS011;23314;51.114;6.900;2024-01-27T10:38:08;12.23;;;4.77;;
37451;SDS011;23314;51.114;6.900;2024-01-27T10:40:35;18.17;;;5.13;;
37451;SDS011;23314;51.114;6.900;2024-01-27T10:45:29;16.97;;;4.90;;
37451;SDS011;23314;51.114;6.900;2024-01-27T10:47:59;14.00;;;4.83;;
37451;SDS011;23314;51.114;6.900;2024-01-27T10:50:24;15.53;;;5.07;;
37451;SDS011;23314;51.114;6.900;2024-01-27T10:52:51;22.53;;;5.27;;
37451;SDS011;23314;51.114;6.900;2024-01-27T10:55:18;16.63;;;5.47;;
37451;SDS011;23314;51.114;6.900;2024-01-27T10:57:44;17.33;;;5.27;;
37451;SDS011;23314;51.114;6.900;2024-01-27T11:00:11;18.17;;;5.70;;
37451;SDS011;23314;51.114;6.900;2024-01-27T11:02:38;13.97;;;4.50;;
37451;SDS011;23314;51.114;6.900;2024-01-27T11:05:04;18.27;;;5.73;;
37451;SDS011;23314;51.114;6.900;2024-01-27T11:07:31;16.90;;;5.30;;
37451;SDS011;23314;51.114;6.900;2024-01-27T11:09:58;16.37;;;5.57;;
37451;SDS011;23314;51.114;6.900;2024-01-27T11:12:24;23.87;;;5.83;;
37451;SDS011;23314;51.114;6.900;2024-01-27T11:14:50;13.20;;;4.77;;
37451;SDS011;23314;51.114;6.900;2024-01-27T11:17:16;15.27;;;5.17;;
37451;SDS011;23314;51.114;6.900;2024-01-27T11:19:42;16.17;;;4.90;;
37451;SDS011;23314;51.114;6.900;2024-01-27T11:22:22;16.40;;;5.17;;
37451;SDS011;23314;51.114;6.900;2024-01-27T11:25:10;18.67;;;5.23;;
37451;SDS011;23314;51.114;6.900;2024-01-27T11:27:40;14.37;;;4.20;;
37451;SDS011;23314;51.114;6.900;2024-01-27T11:30:12;18.37;;;4.70;;
37451;SDS011;23314;51.114;6.900;2024-01-27T11:32:50;20.33;;;4.80;;
37451;SDS011;23314;51.114;6.900;2024-01-27T11:35:18;16.27;;;5.07;;
37451;SDS011;23314;51.114;6.900;2024-01-27T11:37:44;13.17;;;4.33;;
37451;SDS011;23314;51.114;6.900;2024-01-27T11:40:09;20.77;;;4.90;;
37451;SDS011;23314;51.114;6.900;2024-01-27T11:42:35;15.63;;;5.10;;
37451;SDS011;23314;51.114;6.900;2024-01-27T11:45:00;12.73;;;4.70;;
37451;SDS011;23314;51.114;6.900;2024-01-27T11:47:27;14.40;;;4.87;;
37451;SDS011;23314;51.114;6.900;2024-01-27T11:49:54;15.97;;;4.83;;
37451;SDS011;23314;51.114;6.900;2024-01-27T11:52:22;17.00;;;5.27;;
37451;SDS011;23314;51.114;6.900;2024-01-27T11:55:00;18.73;;;5.53;;
37451;SDS011;23314;51.114;6.900;2024-01-27T11:57:26;14.60;;;4.60;;
37451;SDS011;23314;51.114;6.900;2024-01-27T11:59:52;15.57;;;5.30;;
37451;SDS011;23314;51.114;6.900;2024-01-27T12:02:18;14.83;;;5.93;;
37451;SDS011;23314;51.114;6.900;2024-01-27T12:04:43;16.50;;;5.43;;
37451;SDS011;23314;51.114;6.900;2024-01-27T12:07:09;11.50;;;4.67;;
37451;SDS011;23314;51.114;6.900;2024-01-27T12:09:35;11.57;;;4.70;;
37451;SDS011;23314;51.114;6.900;2024-01-27T12:12:02;21.53;;;7.93;;
37451;SDS011;23314;51.114;6.900;2024-01-27T12:14:37;16.10;;;6.37;;
37451;SDS011;23314;51.114;6.900;2024-01-27T12:17:09;17.07;;;5.60;;
37451;SDS011;23314;51.114;6.900;2024-01-27T12:19:35;19.03;;;5.27;;
37451;SDS011;23314;51.114;6.900;2024-01-27T12:22:02;16.47;;;5.40;;
37451;SDS011;23314;51.114;6.900;2024-01-27T12:24:28;14.63;;;4.93;;
37451;SDS011;23314;51.114;6.900;2024-01-27T12:26:55;19.43;;;5.53;;
37451;SDS011;23314;51.114;6.900;2024-01-27T12:29:22;15.23;;;4.47;;
37451;SDS011;23314;51.114;6.900;2024-01-27T12:31:48;15.20;;;4.37;;
37451;SDS011;23314;51.114;6.900;2024-01-27T12:34:13;11.97;;;4.70;;
37451;SDS011;23314;51.114;6.900;2024-01-27T12:36:42;16.57;;;5.20;;
37451;SDS011;23314;51.114;6.900;2024-01-27T12:39:08;13.23;;;4.00;;
37451;SDS011;23314;51.114;6.900;2024-01-27T12:41:34;17.53;;;4.83;;
37451;SDS011;23314;51.114;6.900;2024-01-27T12:44:00;21.70;;;4.60;;
37451;SDS011;23314;51.114;6.900;2024-01-27T12:46:25;13.43;;;4.90;;
37451;SDS011;23314;51.114;6.900;2024-01-27T12:48:51;9.80;;;3.67;;
37451;SDS011;23314;51.114;6.900;2024-01-27T12:51:16;13.23;;;4.07;;
37451;SDS011;23314;51.114;6.900;2024-01-27T12:53:42;12.03;;;4.17;;
37451;SDS011;23314;51.114;6.900;2024-01-27T12:56:13;9.87;;;3.87;;
37451;SDS011;23314;51.114;6.900;2024-01-27T12:58:40;12.20;;;3.93;;
37451;SDS011;23314;51.114;6.900;2024-01-27T13:01:06;10.37;;;3.93;;
37451;SDS011;23314;51.114;6.900;2024-01-27T13:03:33;11.63;;;3.63;;
37451;SDS011;23314;51.114;6.900;2024-01-27T13:05:58;16.37;;;4.57;;
37451;SDS011;23314;51.114;6.900;2024-01-27T13:08:23;17.03;;;3.47;;
37451;SDS011;23314;51.114;6.900;2024-01-27T13:10:49;12.83;;;3.43;;
37451;SDS011;23314;51.114;6.900;2024-01-27T13:13:15;11.50;;;3.70;;
37451;SDS011;23314;51.114;6.900;2024-01-27T13:15:41;11.43;;;3.97;;
37451;SDS011;23314;51.114;6.900;2024-01-27T13:18:06;10.63;;;3.50;;
37451;SDS011;23314;51.114;6.900;2024-01-27T13:20:31;16.70;;;3.97;;
37451;SDS011;23314;51.114;6.900;2024-01-27T13:22:58;16.60;;;4.60;;
37451;SDS011;23314;51.114;6.900;2024-01-27T13:25:24;10.67;;;4.03;;
37451;SDS011;23314;51.114;6.900;2024-01-27T13:27:49;10.67;;;3.20;;
37451;SDS011;23314;51.114;6.900;2024-01-27T13:30:14;16.70;;;3.70;;
37451;SDS011;23314;51.114;6.900;2024-01-27T13:32:42;15.07;;;3.97;;
37451;SDS011;23314;51.114;6.900;2024-01-27T13:35:08;15.80;;;3.37;;
37451;SDS011;23314;51.114;6.900;2024-01-27T13:37:33;18.97;;;4.23;;
37451;SDS011;23314;51.114;6.900;2024-01-27T13:39:59;16.37;;;4.17;;
37451;SDS011;23314;51.114;6.900;2024-01-27T13:42:25;14.70;;;3.83;;
37451;SDS011;23314;51.114;6.900;2024-01-27T13:44:50;12.87;;;4.00;;
37451;SDS011;23314;51.114;6.900;2024-01-27T13:47:16;17.30;;;3.90;;
37451;SDS011;23314;51.114;6.900;2024-01-27T13:49:42;15.27;;;3.60;;
37451;SDS011;23314;51.114;6.900;2024-01-27T13:52:08;11.13;;;3.60;;
37451;SDS011;23314;51.114;6.900;2024-01-27T13:54:33;15.03;;;4.57;;
37451;SDS011;23314;51.114;6.900;2024-01-27T13:56:59;9.97;;;3.30;;
37451;SDS011;23314;51.114;6.900;2024-01-27T13:59:25;9.23;;;3.63;;
37451;SDS011;23314;51.114;6.900;2024-01-27T14:01:51;14.37;;;4.17;;
37451;SDS011;23314;51.114;6.900;2024-01-27T14:04:18;13.43;;;3.73;;
37451;SDS011;23314;51.114;6.900;2024-01-27T14:06:43;11.87;;;3.50;;
37451;SDS011;23314;51.114;6.900;2024-01-27T14:09:09;14.70;;;5.17;;
37451;SDS011;23314;51.114;6.900;2024-01-27T14:11:35;11.50;;;4.13;;
37451;SDS011;23314;51.114;6.900;2024-01-27T14:14:00;12.80;;;5.50;;
37451;SDS011;23314;51.114;6.900;2024-01-27T14:16:26;20.70;;;5.60;;
37451;SDS011;23314;51.114;6.900;2024-01-27T14:18:51;13.50;;;5.10;;
37451;SDS011;23314;51.114;6.900;2024-01-27T14:21:17;15.60;;;8.40;;
37451;SDS011;23314;51.114;6.900;2024-01-27T14:23:42;19.97;;;5.70;;
37451;SDS011;23314;51.114;6.900;2024-01-27T14:26:07;17.10;;;5.03;;
37451;SDS011;23314;51.114;6.900;2024-01-27T14:28:39;11.23;;;4.00;;